sensor_id;sensor_type;location;lat;lon;timestamp;pressure;altitude;pressure_sealevel;temperature;humidity
59831;BME280;45711;50.108;13.712;2023-04-26T00:02:09;97698.28;;;0.99;86.09
59831;BME280;45711;50.108;13.712;2023-04-26T00:04:38;97696.25;;;1.01;85.56
59831;BME280;45711;50.108;13.712;2023-04-26T00:07:07;97683.25;;;1.18;85.28
59831;BME280;45711;50.108;13.712;2023-04-26T00:09:33;97687.00;;;1.10;85.22
59831;BME280;45711;50.108;13.712;2023-04-26T00:12:05;97684.16;;;0.93;85.59
59831;BME280;45711;50.108;13.712;2023-04-26T00:14:30;97692.56;;;1.02;85.30
59831;BME280;45711;50.108;13.712;2023-04-26T00:16:56;97685.56;;;0.96;86.83
59831;BME280;45711;50.108;13.712;2023-04-26T00:19:24;97693.00;;;0.99;85.93
59831;BME280;45711;50.108;13.712;2023-04-26T00:21:50;97694.59;;;1.18;85.73
59831;BME280;45711;50.108;13.712;2023-04-26T00:24:18;97689.09;;;1.20;85.55
59831;BME280;45711;50.108;13.712;2023-04-26T00:26:43;97684.31;;;0.98;86.07
59831;BME280;45711;50.108;13.712;2023-04-26T00:29:11;97693.63;;;1.01;85.48
59831;BME280;45711;50.108;13.712;2023-04-26T00:31:39;97691.38;;;1.16;85.70
59831;BME280;45711;50.108;13.712;2023-04-26T00:34:05;97688.34;;;1.31;83.89
59831;BME280;45711;50.108;13.712;2023-04-26T00:36:34;97696.75;;;1.10;85.34
59831;BME280;45711;50.108;13.712;2023-04-26T00:39:03;97696.44;;;1.18;85.16
59831;BME280;45711;50.108;13.712;2023-04-26T00:41:31;97702.19;;;0.96;86.10
59831;BME280;45711;50.108;13.712;2023-04-26T00:43:56;97698.38;;;0.74;86.42
59831;BME280;45711;50.108;13.712;2023-04-26T00:46:27;97701.81;;;0.93;85.97
59831;BME280;45711;50.108;13.712;2023-04-26T00:48:54;97702.16;;;1.15;86.18
59831;BME280;45711;50.108;13.712;2023-04-26T00:51:19;97702.91;;;0.85;85.98
59831;BME280;45711;50.108;13.712;2023-04-26T00:53:47;97712.16;;;0.76;86.01
59831;BME280;45711;50.108;13.712;2023-04-26T00:56:15;97708.16;;;1.04;86.25
59831;BME280;45711;50.108;13.712;2023-04-26T00:58:41;97704.09;;;0.89;85.92
59831;BME280;45711;50.108;13.712;2023-04-26T01:01:07;97702.31;;;1.02;86.87
59831;BME280;45711;50.108;13.712;2023-04-26T01:03:35;97707.19;;;1.16;86.64
59831;BME280;45711;50.108;13.712;2023-04-26T01:06:03;97707.28;;;1.10;86.12
59831;BME280;45711;50.108;13.712;2023-04-26T01:08:29;97708.44;;;1.14;86.25
59831;BME280;45711;50.108;13.712;2023-04-26T01:10:57;97713.44;;;1.04;86.21
59831;BME280;45711;50.108;13.712;2023-04-26T01:13:26;97704.34;;;1.18;86.30
59831;BME280;45711;50.108;13.712;2023-04-26T01:15:53;97711.88;;;1.14;87.20
59831;BME280;45711;50.108;13.712;2023-04-26T01:18:20;97711.09;;;1.14;87.00
59831;BME280;45711;50.108;13.712;2023-04-26T01:20:47;97708.63;;;1.00;87.16
59831;BME280;45711;50.108;13.712;2023-04-26T01:23:15;97711.03;;;1.02;87.14
59831;BME280;45711;50.108;13.712;2023-04-26T01:25:41;97710.06;;;1.15;87.49
59831;BME280;45711;50.108;13.712;2023-04-26T01:28:07;97716.88;;;1.04;86.97
59831;BME280;45711;50.108;13.712;2023-04-26T01:30:33;97709.91;;;0.91;86.66
59831;BME280;45711;50.108;13.712;2023-04-26T01:32:58;97716.00;;;1.10;86.81
59831;BME280;45711;50.108;13.712;2023-04-26T01:35:24;97715.69;;;1.18;86.41
59831;BME280;45711;50.108;13.712;2023-04-26T01:37:52;97720.72;;;1.20;86.01
59831;BME280;45711;50.108;13.712;2023-04-26T01:40:19;97714.66;;;1.19;86.21
59831;BME280;45711;50.108;13.712;2023-04-26T01:42:45;97715.50;;;1.32;86.25
59831;BME280;45711;50.108;13.712;2023-04-26T01:45:11;97716.78;;;1.11;86.98
59831;BME280;45711;50.108;13.712;2023-04-26T01:47:37;97714.06;;;0.87;87.52
59831;BME280;45711;50.108;13.712;2023-04-26T01:50:03;97724.34;;;0.89;88.41
59831;BME280;45711;50.108;13.712;2023-04-26T01:52:29;97723.19;;;0.85;88.67
59831;BME280;45711;50.108;13.712;2023-04-26T01:54:54;97725.03;;;0.66;88.36
59831;BME280;45711;50.108;13.712;2023-04-26T01:57:22;97722.16;;;0.67;88.65
59831;BME280;45711;50.108;13.712;2023-04-26T01:59:47;97721.88;;;0.57;88.70
59831;BME280;45711;50.108;13.712;2023-04-26T02:02:15;97726.91;;;0.59;88.20
59831;BME280;45711;50.108;13.712;2023-04-26T02:04:41;97726.34;;;0.57;89.16
59831;BME280;45711;50.108;13.712;2023-04-26T02:07:08;97722.16;;;0.49;88.86
59831;BME280;45711;50.108;13.712;2023-04-26T02:09:34;97719.00;;;0.40;88.63
59831;BME280;45711;50.108;13.712;2023-04-26T02:12:00;97720.56;;;0.48;89.89
59831;BME280;45711;50.108;13.712;2023-04-26T02:14:27;97723.06;;;0.80;88.12
59831;BME280;45711;50.108;13.712;2023-04-26T02:16:52;97723.34;;;0.53;88.10
59831;BME280;45711;50.108;13.712;2023-04-26T02:19:18;97722.97;;;0.49;88.62
59831;BME280;45711;50.108;13.712;2023-04-26T02:21:51;97719.00;;;0.40;88.77
59831;BME280;45711;50.108;13.712;2023-04-26T02:24:17;97725.00;;;0.47;89.56
59831;BME280;45711;50.108;13.712;2023-04-26T02:26:43;97731.63;;;0.57;88.88
59831;BME280;45711;50.108;13.712;2023-04-26T02:29:09;97733.28;;;0.51;88.78
59831;BME280;45711;50.108;13.712;2023-04-26T02:31:37;97720.91;;;0.52;89.09
59831;BME280;45711;50.108;13.712;2023-04-26T02:34:02;97733.13;;;0.83;89.50
59831;BME280;45711;50.108;13.712;2023-04-26T02:36:30;97727.72;;;0.96;88.18
59831;BME280;45711;50.108;13.712;2023-04-26T02:38:57;97722.06;;;1.11;88.65
59831;BME280;45711;50.108;13.712;2023-04-26T02:41:23;97719.69;;;1.21;87.93
59831;BME280;45711;50.108;13.712;2023-04-26T02:43:49;97723.59;;;1.18;88.62
59831;BME280;45711;50.108;13.712;2023-04-26T02:46:15;97722.13;;;1.04;88.17
59831;BME280;45711;50.108;13.712;2023-04-26T02:48:42;97729.16;;;1.10;88.10
59831;BME280;45711;50.108;13.712;2023-04-26T02:51:12;97726.81;;;1.20;87.06
59831;BME280;45711;50.108;13.712;2023-04-26T02:53:38;97723.16;;;1.03;88.26
59831;BME280;45711;50.108;13.712;2023-04-26T02:56:04;97729.63;;;0.89;88.56
59831;BME280;45711;50.108;13.712;2023-04-26T02:58:30;97728.31;;;0.80;89.34
59831;BME280;45711;50.108;13.712;2023-04-26T03:00:56;97729.13;;;0.80;88.95
59831;BME280;45711;50.108;13.712;2023-04-26T03:03:22;97721.84;;;0.94;88.89
59831;BME280;45711;50.108;13.712;2023-04-26T03:05:50;97719.97;;;1.01;88.20
59831;BME280;45711;50.108;13.712;2023-04-26T03:08:15;97730.34;;;1.14;88.71
59831;BME280;45711;50.108;13.712;2023-04-26T03:10:43;97721.84;;;1.42;88.31
59831;BME280;45711;50.108;13.712;2023-04-26T03:13:12;97731.47;;;1.37;88.23
59831;BME280;45711;50.108;13.712;2023-04-26T03:15:42;97731.88;;;1.22;88.42
59831;BME280;45711;50.108;13.712;2023-04-26T03:18:08;97725.94;;;1.38;88.84
59831;BME280;45711;50.108;13.712;2023-04-26T03:20:33;97729.13;;;1.59;88.19
59831;BME280;45711;50.108;13.712;2023-04-26T03:23:07;97730.16;;;1.58;87.32
59831;BME280;45711;50.108;13.712;2023-04-26T03:25:32;97731.75;;;1.59;87.34
59831;BME280;45711;50.108;13.712;2023-04-26T03:27:58;97731.50;;;1.48;87.83
59831;BME280;45711;50.108;13.712;2023-04-26T03:30:24;97731.31;;;1.62;87.71
59831;BME280;45711;50.108;13.712;2023-04-26T03:32:50;97728.75;;;1.55;88.11
59831;BME280;45711;50.108;13.712;2023-04-26T03:35:16;97733.31;;;1.48;89.82
59831;BME280;45711;50.108;13.712;2023-04-26T03:37:43;97732.63;;;1.41;89.69
59831;BME280;45711;50.108;13.712;2023-04-26T03:40:11;97737.31;;;1.39;90.63
59831;BME280;45711;50.108;13.712;2023-04-26T03:42:36;97734.47;;;1.40;89.36
59831;BME280;45711;50.108;13.712;2023-04-26T03:45:03;97739.59;;;1.35;89.77
59831;BME280;45711;50.108;13.712;2023-04-26T03:47:29;97746.91;;;1.33;90.68
59831;BME280;45711;50.108;13.712;2023-04-26T03:49:55;97748.81;;;1.44;89.80
59831;BME280;45711;50.108;13.712;2023-04-26T03:52:20;97737.78;;;1.47;90.41
59831;BME280;45711;50.108;13.712;2023-04-26T03:54:46;97752.59;;;1.48;89.29
59831;BME280;45711;50.108;13.712;2023-04-26T03:57:13;97753.84;;;1.46;88.64
59831;BME280;45711;50.108;13.712;2023-04-26T03:59:39;97750.97;;;1.47;90.03
59831;BME280;45711;50.108;13.712;2023-04-26T04:02:04;97752.50;;;1.55;89.93
59831;BME280;45711;50.108;13.712;2023-04-26T04:04:30;97752.78;;;1.35;89.36
59831;BME280;45711;50.108;13.712;2023-04-26T04:07:23;97753.88;;;1.28;91.04
59831;BME280;45711;50.108;13.712;2023-04-26T04:09:52;97744.16;;;1.28;90.71
59831;BME280;45711;50.108;13.712;2023-04-26T04:12:22;97740.09;;;1.44;90.81
59831;BME280;45711;50.108;13.712;2023-04-26T04:18:14;97748.56;;;1.46;90.68
59831;BME280;45711;50.108;13.712;2023-04-26T04:20:43;97752.16;;;1.51;89.59
59831;BME280;45711;50.108;13.712;2023-04-26T04:23:08;97756.00;;;1.37;89.00
59831;BME280;45711;50.108;13.712;2023-04-26T04:26:15;97755.63;;;1.34;89.44
59831;BME280;45711;50.108;13.712;2023-04-26T04:32:47;97758.47;;;1.02;90.85
59831;BME280;45711;50.108;13.712;2023-04-26T04:35:23;97761.81;;;1.28;90.93
59831;BME280;45711;50.108;13.712;2023-04-26T04:38:24;97762.84;;;1.27;91.45
59831;BME280;45711;50.108;13.712;2023-04-26T04:41:20;97770.50;;;1.28;90.50
59831;BME280;45711;50.108;13.712;2023-04-26T04:44:00;97777.00;;;1.44;88.57
59831;BME280;45711;50.108;13.712;2023-04-26T04:46:27;97771.75;;;1.44;89.42
59831;BME280;45711;50.108;13.712;2023-04-26T04:48:55;97775.19;;;1.44;89.31
59831;BME280;45711;50.108;13.712;2023-04-26T04:51:26;97773.41;;;1.38;90.32
59831;BME280;45711;50.108;13.712;2023-04-26T04:53:59;97779.78;;;1.49;90.82
59831;BME280;45711;50.108;13.712;2023-04-26T04:56:45;97783.59;;;1.53;90.46
59831;BME280;45711;50.108;13.712;2023-04-26T04:59:28;97785.81;;;1.68;90.22
59831;BME280;45711;50.108;13.712;2023-04-26T05:05:32;97789.97;;;1.75;88.24
59831;BME280;45711;50.108;13.712;2023-04-26T05:08:22;97780.50;;;1.98;87.05
59831;BME280;45711;50.108;13.712;2023-04-26T05:14:10;97790.50;;;1.96;86.89
59831;BME280;45711;50.108;13.712;2023-04-26T05:16:40;97785.66;;;1.93;86.96
59831;BME280;45711;50.108;13.712;2023-04-26T05:19:08;97787.75;;;2.03;86.62
59831;BME280;45711;50.108;13.712;2023-04-26T05:21:37;97789.84;;;2.24;84.84
59831;BME280;45711;50.108;13.712;2023-04-26T05:24:03;97791.44;;;2.25;84.35
59831;BME280;45711;50.108;13.712;2023-04-26T05:26:29;97792.72;;;2.34;84.33
59831;BME280;45711;50.108;13.712;2023-04-26T05:28:54;97792.19;;;2.44;84.24
59831;BME280;45711;50.108;13.712;2023-04-26T05:31:20;97788.94;;;2.65;82.48
59831;BME280;45711;50.108;13.712;2023-04-26T05:33:46;97798.81;;;2.82;82.00
59831;BME280;45711;50.108;13.712;2023-04-26T05:36:12;97797.53;;;2.96;82.45
59831;BME280;45711;50.108;13.712;2023-04-26T05:38:39;97804.56;;;3.02;82.55
59831;BME280;45711;50.108;13.712;2023-04-26T05:41:05;97812.50;;;3.02;81.31
59831;BME280;45711;50.108;13.712;2023-04-26T05:43:31;97809.00;;;3.13;81.03
59831;BME280;45711;50.108;13.712;2023-04-26T05:45:59;97819.38;;;3.03;80.72
59831;BME280;45711;50.108;13.712;2023-04-26T05:48:26;97824.66;;;3.15;79.10
59831;BME280;45711;50.108;13.712;2023-04-26T05:50:52;97819.44;;;3.32;79.18
59831;BME280;45711;50.108;13.712;2023-04-26T05:53:18;97829.88;;;3.38;79.13
59831;BME280;45711;50.108;13.712;2023-04-26T05:55:45;97825.63;;;3.49;78.69
59831;BME280;45711;50.108;13.712;2023-04-26T05:58:11;97826.06;;;3.58;77.36
59831;BME280;45711;50.108;13.712;2023-04-26T06:00:37;97826.66;;;3.76;77.17
59831;BME280;45711;50.108;13.712;2023-04-26T06:03:03;97826.25;;;3.68;78.07
59831;BME280;45711;50.108;13.712;2023-04-26T06:05:31;97837.13;;;4.00;76.73
59831;BME280;45711;50.108;13.712;2023-04-26T06:07:57;97835.50;;;4.61;76.98
59831;BME280;45711;50.108;13.712;2023-04-26T06:10:23;97839.06;;;4.84;74.64
59831;BME280;45711;50.108;13.712;2023-04-26T06:12:52;97835.28;;;4.63;75.03
59831;BME280;45711;50.108;13.712;2023-04-26T06:15:18;97842.19;;;4.64;75.91
59831;BME280;45711;50.108;13.712;2023-04-26T06:17:44;97833.19;;;4.48;77.34
59831;BME280;45711;50.108;13.712;2023-04-26T06:20:12;97840.25;;;4.93;76.33
59831;BME280;45711;50.108;13.712;2023-04-26T06:22:38;97838.69;;;5.79;78.20
59831;BME280;45711;50.108;13.712;2023-04-26T06:25:07;97842.88;;;5.75;70.62
59831;BME280;45711;50.108;13.712;2023-04-26T06:27:35;97845.59;;;5.80;70.36
59831;BME280;45711;50.108;13.712;2023-04-26T06:30:13;97848.34;;;6.13;71.57
59831;BME280;45711;50.108;13.712;2023-04-26T06:32:41;97840.19;;;6.19;68.64
59831;BME280;45711;50.108;13.712;2023-04-26T06:35:23;97843.97;;;6.61;77.53
59831;BME280;45711;50.108;13.712;2023-04-26T06:38:08;97846.78;;;7.18;74.86
59831;BME280;45711;50.108;13.712;2023-04-26T06:40:45;97846.91;;;6.59;65.45
59831;BME280;45711;50.108;13.712;2023-04-26T06:43:14;97845.56;;;6.29;65.73
59831;BME280;45711;50.108;13.712;2023-04-26T06:45:48;97851.72;;;7.04;64.84
59831;BME280;45711;50.108;13.712;2023-04-26T06:48:18;97850.31;;;7.34;68.97
59831;BME280;45711;50.108;13.712;2023-04-26T06:50:50;97854.31;;;9.32;65.09
59831;BME280;45711;50.108;13.712;2023-04-26T06:53:53;97860.19;;;9.29;60.24
59831;BME280;45711;50.108;13.712;2023-04-26T06:56:49;97860.47;;;9.27;64.58
59831;BME280;45711;50.108;13.712;2023-04-26T06:59:18;97859.97;;;9.90;61.42
59831;BME280;45711;50.108;13.712;2023-04-26T07:02:03;97853.81;;;8.23;57.73
59831;BME280;45711;50.108;13.712;2023-04-26T07:04:37;97854.84;;;8.27;65.14
59831;BME280;45711;50.108;13.712;2023-04-26T07:07:11;97849.22;;;7.93;63.37
59831;BME280;45711;50.108;13.712;2023-04-26T07:10:02;97858.00;;;7.88;69.32
59831;BME280;45711;50.108;13.712;2023-04-26T07:12:38;97853.72;;;7.24;62.40
59831;BME280;45711;50.108;13.712;2023-04-26T07:15:27;97852.63;;;7.20;64.36
59831;BME280;45711;50.108;13.712;2023-04-26T07:18:09;97861.84;;;7.50;71.37
59831;BME280;45711;50.108;13.712;2023-04-26T07:20:56;97860.25;;;7.01;71.36
59831;BME280;45711;50.108;13.712;2023-04-26T07:23:43;97854.19;;;6.74;70.19
59831;BME280;45711;50.108;13.712;2023-04-26T07:26:30;97858.72;;;6.78;69.24
59831;BME280;45711;50.108;13.712;2023-04-26T07:29:06;97855.75;;;6.70;66.99
59831;BME280;45711;50.108;13.712;2023-04-26T07:31:45;97856.72;;;9.98;62.26
59831;BME280;45711;50.108;13.712;2023-04-26T07:34:18;97864.38;;;12.14;57.19
59831;BME280;45711;50.108;13.712;2023-04-26T07:40:19;97859.91;;;9.30;61.83
59831;BME280;45711;50.108;13.712;2023-04-26T07:42:57;97863.94;;;12.44;56.88
59831;BME280;45711;50.108;13.712;2023-04-26T07:45:26;97860.69;;;11.67;48.10
59831;BME280;45711;50.108;13.712;2023-04-26T07:47:57;97857.91;;;9.72;60.52
59831;BME280;45711;50.108;13.712;2023-04-26T07:50:37;97863.19;;;8.56;62.86
59831;BME280;45711;50.108;13.712;2023-04-26T07:53:28;97852.97;;;8.17;57.69
59831;BME280;45711;50.108;13.712;2023-04-26T07:55:53;97853.59;;;8.70;60.08
59831;BME280;45711;50.108;13.712;2023-04-26T07:58:21;97855.75;;;9.74;53.41
59831;BME280;45711;50.108;13.712;2023-04-26T08:03:48;97859.88;;;9.46;55.80
59831;BME280;45711;50.108;13.712;2023-04-26T08:06:21;97860.47;;;8.30;55.25
59831;BME280;45711;50.108;13.712;2023-04-26T08:08:47;97868.38;;;7.85;57.59
59831;BME280;45711;50.108;13.712;2023-04-26T08:11:22;97866.94;;;7.62;59.91
59831;BME280;45711;50.108;13.712;2023-04-26T08:14:10;97875.56;;;7.89;64.97
59831;BME280;45711;50.108;13.712;2023-04-26T08:16:40;97870.28;;;7.99;62.76
59831;BME280;45711;50.108;13.712;2023-04-26T08:19:11;97877.59;;;8.65;63.65
59831;BME280;45711;50.108;13.712;2023-04-26T08:21:38;97872.97;;;9.42;51.78
59831;BME280;45711;50.108;13.712;2023-04-26T08:24:26;97874.06;;;9.26;52.28
59831;BME280;45711;50.108;13.712;2023-04-26T08:27:02;97871.88;;;11.21;48.87
59831;BME280;45711;50.108;13.712;2023-04-26T08:29:40;97886.69;;;9.90;55.56
59831;BME280;45711;50.108;13.712;2023-04-26T08:32:09;97887.19;;;9.27;61.02
59831;BME280;45711;50.108;13.712;2023-04-26T08:43:44;97897.59;;;8.47;62.45
59831;BME280;45711;50.108;13.712;2023-04-26T08:46:54;97892.47;;;8.30;61.96
59831;BME280;45711;50.108;13.712;2023-04-26T08:49:26;97898.94;;;8.86;63.39
59831;BME280;45711;50.108;13.712;2023-04-26T08:52:10;97896.00;;;8.56;53.98
59831;BME280;45711;50.108;13.712;2023-04-26T08:54:58;97898.94;;;8.70;58.91
59831;BME280;45711;50.108;13.712;2023-04-26T09:00:23;97897.22;;;12.81;48.80
59831;BME280;45711;50.108;13.712;2023-04-26T09:06:21;97893.34;;;9.02;53.95
59831;BME280;45711;50.108;13.712;2023-04-26T09:09:15;97892.81;;;8.80;48.51
59831;BME280;45711;50.108;13.712;2023-04-26T09:12:21;97889.88;;;8.81;61.86
59831;BME280;45711;50.108;13.712;2023-04-26T09:15:06;97889.03;;;9.17;60.72
59831;BME280;45711;50.108;13.712;2023-04-26T09:21:18;97894.00;;;10.29;57.30
59831;BME280;45711;50.108;13.712;2023-04-26T09:24:27;97891.91;;;9.56;57.03
59831;BME280;45711;50.108;13.712;2023-04-26T09:27:09;97894.59;;;9.51;60.35
59831;BME280;45711;50.108;13.712;2023-04-26T09:30:05;97895.69;;;9.29;58.55
59831;BME280;45711;50.108;13.712;2023-04-26T09:32:51;97893.34;;;9.07;51.55
59831;BME280;45711;50.108;13.712;2023-04-26T09:35:21;97894.09;;;9.18;59.77
59831;BME280;45711;50.108;13.712;2023-04-26T09:37:57;97889.34;;;9.10;59.99
59831;BME280;45711;50.108;13.712;2023-04-26T09:40:25;97887.66;;;9.50;59.33
59831;BME280;45711;50.108;13.712;2023-04-26T09:43:12;97888.47;;;9.35;50.01
59831;BME280;45711;50.108;13.712;2023-04-26T09:45:50;97886.91;;;9.24;53.35
59831;BME280;45711;50.108;13.712;2023-04-26T09:48:18;97894.75;;;9.85;60.01
59831;BME280;45711;50.108;13.712;2023-04-26T09:50:46;97894.72;;;10.84;56.16
59831;BME280;45711;50.108;13.712;2023-04-26T09:53:30;97890.41;;;10.49;57.77
59831;BME280;45711;50.108;13.712;2023-04-26T09:56:08;97889.38;;;10.45;56.73
59831;BME280;45711;50.108;13.712;2023-04-26T09:58:39;97891.94;;;10.11;59.18
59831;BME280;45711;50.108;13.712;2023-04-26T10:01:06;97891.19;;;10.00;54.52
59831;BME280;45711;50.108;13.712;2023-04-26T10:03:33;97883.19;;;9.95;58.35
59831;BME280;45711;50.108;13.712;2023-04-26T10:05:59;97893.59;;;9.96;54.51
59831;BME280;45711;50.108;13.712;2023-04-26T10:08:31;97896.06;;;9.93;57.27
59831;BME280;45711;50.108;13.712;2023-04-26T10:10:57;97882.81;;;10.61;50.90
59831;BME280;45711;50.108;13.712;2023-04-26T10:13:29;97879.59;;;10.98;46.63
59831;BME280;45711;50.108;13.712;2023-04-26T10:15:58;97889.41;;;11.08;56.66
59831;BME280;45711;50.108;13.712;2023-04-26T10:18:27;97875.38;;;11.45;41.31
59831;BME280;45711;50.108;13.712;2023-04-26T10:22:30;97878.78;;;11.27;51.89
59831;BME280;45711;50.108;13.712;2023-04-26T10:24:02;97875.53;;;11.01;48.77
59831;BME280;45711;50.108;13.712;2023-04-26T10:26:47;97873.59;;;10.77;52.31
59831;BME280;45711;50.108;13.712;2023-04-26T10:29:14;97870.41;;;10.41;55.60
59831;BME280;45711;50.108;13.712;2023-04-26T10:32:09;97876.38;;;10.28;55.59
59831;BME280;45711;50.108;13.712;2023-04-26T10:35:15;97879.91;;;10.08;49.86
59831;BME280;45711;50.108;13.712;2023-04-26T10:38:10;97882.06;;;10.11;56.84
59831;BME280;45711;50.108;13.712;2023-04-26T10:44:44;97865.97;;;10.61;55.50
59831;BME280;45711;50.108;13.712;2023-04-26T10:47:49;97858.16;;;10.30;59.12
59831;BME280;45711;50.108;13.712;2023-04-26T11:01:02;97866.94;;;10.41;56.30
59831;BME280;45711;50.108;13.712;2023-04-26T11:07:13;97860.16;;;10.48;51.04
59831;BME280;45711;50.108;13.712;2023-04-26T11:10:49;97859.22;;;10.68;58.45
59831;BME280;45711;50.108;13.712;2023-04-26T12:20:59;97859.97;;;10.40;47.85
59831;BME280;45711;50.108;13.712;2023-04-26T12:23:46;97848.00;;;10.66;53.49
59831;BME280;45711;50.108;13.712;2023-04-26T12:30:21;97847.38;;;10.45;50.74
59831;BME280;45711;50.108;13.712;2023-04-26T12:33:21;97848.97;;;10.46;50.14
59831;BME280;45711;50.108;13.712;2023-04-26T12:36:16;97834.19;;;10.54;43.59
59831;BME280;45711;50.108;13.712;2023-04-26T12:39:21;97840.97;;;10.75;46.69
59831;BME280;45711;50.108;13.712;2023-04-26T12:46:20;97843.06;;;10.78;44.83
59831;BME280;45711;50.108;13.712;2023-04-26T12:51:52;97847.63;;;10.78;51.67
59831;BME280;45711;50.108;13.712;2023-04-26T12:54:27;97839.34;;;10.74;48.24
59831;BME280;45711;50.108;13.712;2023-04-26T12:56:56;97841.28;;;10.69;45.97
59831;BME280;45711;50.108;13.712;2023-04-26T13:16:49;97824.88;;;10.80;49.30
59831;BME280;45711;50.108;13.712;2023-04-26T13:19:26;97837.78;;;10.73;50.51
59831;BME280;45711;50.108;13.712;2023-04-26T13:22:06;97834.59;;;10.71;48.45
59831;BME280;45711;50.108;13.712;2023-04-26T13:40:48;97830.94;;;10.57;45.06
59831;BME280;45711;50.108;13.712;2023-04-26T13:43:15;97826.69;;;10.56;49.00
59831;BME280;45711;50.108;13.712;2023-04-26T13:45:41;97828.28;;;10.86;50.73
59831;BME280;45711;50.108;13.712;2023-04-26T13:48:07;97830.72;;;11.12;45.25
59831;BME280;45711;50.108;13.712;2023-04-26T13:50:36;97829.63;;;11.13;39.73
59831;BME280;45711;50.108;13.712;2023-04-26T13:53:02;97827.59;;;11.28;42.30
59831;BME280;45711;50.108;13.712;2023-04-26T13:55:28;97839.19;;;10.95;47.25
59831;BME280;45711;50.108;13.712;2023-04-26T13:57:55;97834.84;;;10.70;40.80
59831;BME280;45711;50.108;13.712;2023-04-26T14:00:21;97839.34;;;10.74;47.29
59831;BME280;45711;50.108;13.712;2023-04-26T14:02:47;97843.22;;;10.63;42.25
59831;BME280;45711;50.108;13.712;2023-04-26T14:05:13;97838.41;;;10.60;40.43
59831;BME280;45711;50.108;13.712;2023-04-26T14:07:39;97851.41;;;10.77;43.35
59831;BME280;45711;50.108;13.712;2023-04-26T14:10:06;97844.03;;;10.93;47.25
59831;BME280;45711;50.108;13.712;2023-04-26T14:12:32;97851.06;;;10.83;48.27
59831;BME280;45711;50.108;13.712;2023-04-26T14:14:59;97840.47;;;11.02;52.16
59831;BME280;45711;50.108;13.712;2023-04-26T14:17:30;97847.34;;;10.79;51.83
59831;BME280;45711;50.108;13.712;2023-04-26T14:19:56;97840.44;;;10.39;52.08
59831;BME280;45711;50.108;13.712;2023-04-26T14:22:23;97848.38;;;10.83;52.34
59831;BME280;45711;50.108;13.712;2023-04-26T14:24:58;97841.28;;;10.69;43.89
59831;BME280;45711;50.108;13.712;2023-04-26T16:05:10;97829.13;;;10.81;48.48
59831;BME280;45711;50.108;13.712;2023-04-26T19:32:33;97991.53;;;5.70;57.97
59831;BME280;45711;50.108;13.712;2023-04-26T19:45:32;97999.97;;;5.67;59.54
59831;BME280;45711;50.108;13.712;2023-04-26T19:48:02;98000.34;;;5.76;58.52
59831;BME280;45711;50.108;13.712;2023-04-26T19:54:06;97998.59;;;5.65;58.89
59831;BME280;45711;50.108;13.712;2023-04-26T19:56:34;98001.50;;;5.63;59.00
59831;BME280;45711;50.108;13.712;2023-04-26T19:59:00;98009.28;;;5.70;58.77
59831;BME280;45711;50.108;13.712;2023-04-26T20:01:26;98019.09;;;5.69;60.02
59831;BME280;45711;50.108;13.712;2023-04-26T20:03:53;98010.53;;;5.62;60.32
59831;BME280;45711;50.108;13.712;2023-04-26T20:06:30;98011.56;;;5.61;60.90
59831;BME280;45711;50.108;13.712;2023-04-26T20:09:19;98015.44;;;5.53;61.06
59831;BME280;45711;50.108;13.712;2023-04-26T20:13:18;98011.75;;;5.38;62.08
59831;BME280;45711;50.108;13.712;2023-04-26T20:18:38;98013.66;;;5.25;63.90
59831;BME280;45711;50.108;13.712;2023-04-26T20:21:45;98009.88;;;5.21;64.43
59831;BME280;45711;50.108;13.712;2023-04-26T20:25:21;98013.75;;;5.14;66.00
59831;BME280;45711;50.108;13.712;2023-04-26T20:27:32;98016.56;;;5.24;67.46
59831;BME280;45711;50.108;13.712;2023-04-26T20:30:35;98020.06;;;4.96;69.98
59831;BME280;45711;50.108;13.712;2023-04-26T20:33:12;98016.88;;;4.94;69.25
59831;BME280;45711;50.108;13.712;2023-04-26T20:35:41;98014.47;;;4.92;67.41
59831;BME280;45711;50.108;13.712;2023-04-26T20:38:15;98016.63;;;4.95;68.69
59831;BME280;45711;50.108;13.712;2023-04-26T20:43:46;98010.66;;;4.71;70.89
59831;BME280;45711;50.108;13.712;2023-04-26T20:46:30;98013.53;;;4.70;70.53
59831;BME280;45711;50.108;13.712;2023-04-26T20:51:50;98012.06;;;4.34;69.86
59831;BME280;45711;50.108;13.712;2023-04-26T20:58:25;98013.09;;;4.33;69.69
59831;BME280;45711;50.108;13.712;2023-04-26T21:00:10;98007.81;;;4.33;69.86
59831;BME280;45711;50.108;13.712;2023-04-26T21:02:42;98006.31;;;4.25;71.18
59831;BME280;45711;50.108;13.712;2023-04-26T21:08:49;97998.91;;;4.10;73.75
59831;BME280;45711;50.108;13.712;2023-04-26T21:11:31;98003.84;;;3.95;73.11
59831;BME280;45711;50.108;13.712;2023-04-26T21:14:03;98006.75;;;3.82;73.15
59831;BME280;45711;50.108;13.712;2023-04-26T21:16:37;98007.47;;;3.77;72.83
59831;BME280;45711;50.108;13.712;2023-04-26T21:19:06;98014.47;;;3.48;72.86
59831;BME280;45711;50.108;13.712;2023-04-26T21:21:39;98008.63;;;3.46;73.52
59831;BME280;45711;50.108;13.712;2023-04-26T21:24:14;98017.94;;;3.25;73.76
59831;BME280;45711;50.108;13.712;2023-04-26T21:26:55;98018.50;;;3.15;74.54
59831;BME280;45711;50.108;13.712;2023-04-26T21:29:21;98011.94;;;3.06;75.09
59831;BME280;45711;50.108;13.712;2023-04-26T21:32:19;98013.41;;;3.02;75.34
59831;BME280;45711;50.108;13.712;2023-04-26T21:34:47;98017.63;;;2.91;75.63
59831;BME280;45711;50.108;13.712;2023-04-26T21:37:22;98019.00;;;2.82;76.30
59831;BME280;45711;50.108;13.712;2023-04-26T21:39:56;98020.16;;;2.86;75.96
59831;BME280;45711;50.108;13.712;2023-04-26T21:42:35;98026.31;;;2.68;75.75
59831;BME280;45711;50.108;13.712;2023-04-26T21:45:01;98027.75;;;2.53;76.13
59831;BME280;45711;50.108;13.712;2023-04-26T21:47:30;98032.38;;;2.39;76.70
59831;BME280;45711;50.108;13.712;2023-04-26T21:49:58;98038.31;;;2.34;76.77
59831;BME280;45711;50.108;13.712;2023-04-26T21:52:33;98041.69;;;2.41;76.69